createdAt,value
2023-04-15T00:01:43.833Z,5.18
2023-04-15T00:04:11.167Z,5.53
2023-04-15T00:06:39.633Z,4.40
2023-04-15T00:09:06.585Z,4.30
2023-04-15T00:11:33.862Z,3.38
2023-04-15T00:14:01.102Z,3.38
2023-04-15T00:16:28.479Z,3.08
2023-04-15T00:18:55.604Z,3.08
2023-04-15T00:21:22.503Z,3.50
2023-04-15T00:23:52.721Z,3.72
2023-04-15T00:26:20.824Z,3.63
2023-04-15T00:28:50.883Z,3.92
2023-04-15T00:31:18.124Z,4.38
2023-04-15T00:33:46.412Z,4.60
2023-04-15T00:36:13.682Z,5.03
2023-04-15T00:38:40.889Z,5.07
2023-04-15T00:41:07.808Z,5.18
2023-04-15T00:43:34.872Z,5.15
2023-04-15T00:46:03.850Z,5.40
2023-04-15T00:48:30.941Z,6.13
2023-04-15T00:50:58.019Z,5.93
2023-04-15T00:53:25.040Z,6.15
2023-04-15T00:55:52.043Z,6.88
2023-04-15T00:58:18.983Z,7.22
2023-04-15T01:00:46.238Z,6.93
2023-04-15T01:03:14.068Z,7.32
2023-04-15T01:05:41.731Z,6.75
2023-04-15T01:08:08.666Z,6.32
2023-04-15T01:10:36.071Z,6.20
2023-04-15T01:13:03.799Z,6.10
2023-04-15T01:15:31.415Z,6.55
2023-04-15T01:18:02.601Z,5.82
2023-04-15T01:20:30.183Z,5.90
2023-04-15T01:22:57.102Z,6.30
2023-04-15T01:25:31.712Z,6.45
2023-04-15T01:27:59.183Z,6.30
2023-04-15T01:30:27.152Z,6.30
2023-04-15T01:32:54.481Z,6.10
2023-04-15T01:35:21.606Z,6.93
2023-04-15T01:37:48.555Z,6.72
2023-04-15T01:40:17.424Z,7.05
2023-04-15T01:42:44.549Z,5.82
2023-04-15T01:45:11.693Z,5.95
2023-04-15T01:47:38.648Z,5.70
2023-04-15T01:50:06.914Z,6.15
2023-04-15T01:52:33.956Z,5.72
2023-04-15T01:55:01.141Z,5.82
2023-04-15T01:57:28.175Z,5.70
2023-04-15T01:59:55.182Z,5.00
2023-04-15T02:02:22.283Z,5.43
2023-04-15T02:04:49.362Z,5.30
2023-04-15T02:07:16.787Z,5.40
2023-04-15T02:09:43.778Z,4.90
2023-04-15T02:12:10.678Z,4.60
2023-04-15T02:14:37.614Z,4.72
2023-04-15T02:17:08.356Z,4.68
2023-04-15T02:19:35.740Z,4.63
2023-04-15T02:22:03.714Z,4.60
2023-04-15T02:24:31.243Z,4.55
2023-04-15T02:26:58.274Z,4.20
2023-04-15T02:29:25.500Z,4.20
2023-04-15T02:31:52.487Z,4.10
2023-04-15T02:34:20.573Z,3.40
2023-04-15T02:36:48.752Z,3.80
2023-04-15T02:39:18.633Z,3.75
2023-04-15T02:41:47.832Z,3.47
2023-04-15T02:44:15.655Z,3.40
2023-04-15T02:46:43.688Z,3.42
2023-04-15T02:49:11.011Z,2.90
2023-04-15T02:51:38.937Z,3.50
2023-04-15T02:54:06.173Z,3.22
2023-04-15T02:56:33.367Z,3.38
2023-04-15T02:59:00.983Z,3.10
2023-04-15T03:01:28.298Z,3.40
2023-04-15T03:03:55.364Z,3.30
2023-04-15T03:06:22.712Z,3.45
2023-04-15T03:08:50.760Z,3.45
2023-04-15T03:11:18.762Z,3.33
2023-04-15T03:13:45.770Z,3.30
2023-04-15T03:16:24.757Z,3.30
2023-04-15T03:18:51.697Z,3.30
2023-04-15T03:21:20.540Z,3.35
2023-04-15T03:23:48.989Z,3.25
2023-04-15T03:26:30.693Z,3.30
2023-04-15T03:29:03.159Z,3.22
2023-04-15T03:31:30.431Z,3.40
2023-04-15T03:33:57.451Z,3.67
2023-04-15T03:36:24.397Z,3.40
2023-04-15T03:38:51.280Z,4.07
2023-04-15T03:41:18.230Z,3.85
2023-04-15T03:43:45.120Z,3.88
2023-04-15T03:46:12.054Z,3.45
2023-04-15T03:48:39.009Z,4.10
2023-04-15T03:51:05.988Z,3.90
2023-04-15T03:53:32.861Z,3.97
2023-04-15T03:55:59.801Z,4.03
2023-04-15T03:58:26.738Z,3.97
2023-04-15T04:00:54.917Z,4.15
2023-04-15T04:03:22.179Z,4.22
2023-04-15T04:05:49.298Z,4.30
2023-04-15T04:08:16.802Z,4.32
2023-04-15T04:10:43.733Z,4.78
2023-04-15T04:13:10.708Z,4.22
2023-04-15T04:15:37.850Z,4.90
2023-04-15T04:18:04.857Z,4.47
2023-04-15T04:20:32.189Z,4.63
2023-04-15T04:22:59.102Z,4.63
2023-04-15T04:25:26.204Z,4.72
2023-04-15T04:27:53.137Z,4.95
2023-04-15T04:30:20.160Z,5.20
2023-04-15T04:32:47.135Z,4.97
2023-04-15T04:35:14.137Z,4.93
2023-04-15T04:37:41.145Z,4.97
2023-04-15T04:40:10.713Z,5.03
2023-04-15T04:42:39.833Z,4.88
2023-04-15T04:45:07.604Z,4.90
2023-04-15T04:47:34.616Z,4.80
2023-04-15T04:50:01.660Z,5.20
2023-04-15T04:52:28.595Z,5.15
2023-04-15T04:54:55.694Z,4.82
2023-04-15T04:57:22.647Z,5.13
2023-04-15T04:59:49.601Z,5.00
2023-04-15T05:02:16.756Z,4.80
2023-04-15T05:04:43.798Z,5.10
2023-04-15T05:07:10.930Z,4.72
2023-04-15T05:09:38.011Z,5.22
2023-04-15T05:12:05.455Z,4.90
2023-04-15T05:14:32.516Z,4.88
2023-04-15T05:16:59.446Z,4.70
2023-04-15T05:19:26.326Z,5.22
2023-04-15T05:21:53.289Z,5.15
2023-04-15T05:24:20.145Z,4.55
2023-04-15T05:26:47.157Z,5.38
2023-04-15T05:29:14.070Z,5.07
2023-04-15T05:31:41.085Z,4.55
2023-04-15T05:34:08.098Z,5.03
2023-04-15T05:36:35.037Z,5.13
2023-04-15T05:39:02.242Z,5.05
2023-04-15T05:41:29.402Z,5.20
2023-04-15T05:43:56.404Z,5.40
2023-04-15T05:46:23.390Z,5.28
2023-04-15T05:48:50.752Z,5.10
2023-04-15T05:51:17.736Z,5.25
2023-04-15T05:53:46.055Z,5.07
2023-04-15T05:56:13.032Z,5.68
2023-04-15T05:58:39.927Z,5.50
2023-04-15T06:01:07.326Z,5.53
2023-04-15T06:03:34.536Z,5.35
2023-04-15T06:06:02.502Z,5.65
2023-04-15T06:08:29.533Z,5.50
2023-04-15T06:10:56.509Z,5.50
2023-04-15T06:13:23.402Z,5.50
2023-04-15T06:15:50.430Z,5.28
2023-04-15T06:18:17.458Z,5.15
2023-04-15T06:20:44.387Z,5.55
2023-04-15T06:23:11.371Z,5.05
2023-04-15T06:25:38.449Z,5.07
2023-04-15T06:28:05.516Z,5.22
2023-04-15T06:30:32.418Z,4.97
2023-04-15T06:32:59.464Z,4.60
2023-04-15T06:35:26.387Z,4.55
2023-04-15T06:37:53.274Z,4.47
2023-04-15T06:40:20.217Z,4.47
2023-04-15T06:42:47.234Z,4.47
2023-04-15T06:45:16.061Z,4.45
2023-04-15T06:47:43.710Z,4.50
2023-04-15T06:50:11.569Z,5.13
2023-04-15T06:52:38.532Z,5.13
2023-04-15T06:55:06.072Z,4.63
2023-04-15T06:57:34.888Z,5.03
2023-04-15T07:00:02.280Z,4.90
2023-04-15T07:02:29.308Z,5.22
2023-04-15T07:04:57.052Z,4.57
2023-04-15T07:07:24.049Z,4.68
2023-04-15T07:09:51.400Z,4.50
2023-04-15T07:12:18.291Z,5.28
2023-04-15T07:14:45.347Z,4.57
2023-04-15T07:17:12.525Z,4.38
2023-04-15T07:19:39.575Z,4.57
2023-04-15T07:22:06.567Z,4.55
2023-04-15T07:24:33.786Z,4.90
2023-04-15T07:27:01.282Z,5.07
2023-04-15T07:29:28.437Z,5.00
2023-04-15T07:31:57.173Z,5.13
2023-04-15T07:34:24.636Z,4.65
2023-04-15T07:36:52.108Z,5.18
2023-04-15T07:39:19.463Z,5.55
2023-04-15T07:41:46.691Z,5.63
2023-04-15T07:44:13.753Z,5.72
2023-04-15T07:46:41.215Z,6.10
2023-04-15T07:49:08.177Z,5.57
2023-04-15T07:51:35.229Z,5.88
2023-04-15T07:54:03.371Z,6.40
2023-04-15T07:56:30.547Z,5.95
2023-04-15T07:58:57.511Z,6.05
2023-04-15T08:01:24.508Z,5.90
2023-04-15T08:03:51.725Z,6.50
2023-04-15T08:06:18.934Z,6.43
2023-04-15T08:08:49.079Z,6.40
2023-04-15T08:11:16.236Z,6.20
2023-04-15T08:13:43.278Z,6.72
2023-04-15T08:16:23.759Z,6.80
2023-04-15T08:18:51.825Z,6.57
2023-04-15T08:21:19.318Z,6.18
2023-04-15T08:23:47.035Z,6.82
2023-04-15T08:26:14.283Z,6.28
2023-04-15T08:28:41.704Z,6.70
2023-04-15T08:31:09.436Z,7.10
2023-04-15T08:33:36.989Z,6.93
2023-04-15T08:36:04.554Z,7.25
2023-04-15T08:38:31.881Z,11.95
2023-04-15T08:41:00.395Z,6.90
2023-04-15T08:43:34.123Z,6.72
2023-04-15T08:46:01.754Z,6.97
2023-04-15T08:48:33.490Z,6.75
2023-04-15T08:51:00.514Z,6.97
2023-04-15T08:53:29.262Z,6.78
2023-04-15T08:55:56.622Z,6.93
2023-04-15T08:58:28.668Z,7.45
2023-04-15T09:00:56.793Z,7.25
2023-04-15T09:03:24.923Z,7.10
2023-04-15T09:05:53.301Z,7.07
2023-04-15T09:08:20.344Z,7.18
2023-04-15T09:10:47.539Z,6.93
2023-04-15T09:13:14.939Z,6.88
2023-04-15T09:15:41.961Z,7.32
2023-04-15T09:18:09.635Z,7.22
2023-04-15T09:20:41.553Z,6.57
2023-04-15T09:23:15.701Z,6.55
2023-04-15T09:25:42.755Z,7.32
2023-04-15T09:28:09.982Z,7.38
2023-04-15T09:30:37.065Z,7.82
2023-04-15T09:33:08.751Z,7.20
2023-04-15T09:35:36.845Z,7.30
2023-04-15T09:38:07.643Z,7.43
2023-04-15T09:40:36.035Z,7.20
2023-04-15T09:43:03.941Z,7.82
2023-04-15T09:45:31.330Z,7.70
2023-04-15T09:47:59.302Z,7.93
2023-04-15T09:50:29.663Z,8.35
2023-04-15T09:52:56.718Z,8.00
2023-04-15T09:55:23.820Z,8.32
2023-04-15T09:57:50.803Z,8.15
2023-04-15T10:00:17.898Z,8.10
2023-04-15T10:02:45.975Z,7.57
2023-04-15T10:05:14.964Z,7.30
2023-04-15T10:07:42.884Z,6.93
2023-04-15T10:10:10.534Z,7.53
2023-04-15T10:12:38.039Z,6.80
2023-04-15T10:15:06.052Z,6.18
2023-04-15T10:17:37.302Z,6.50
2023-04-15T10:20:05.387Z,7.10
2023-04-15T10:22:33.175Z,6.78
2023-04-15T10:25:01.093Z,7.00
2023-04-15T10:27:28.955Z,6.40
2023-04-15T10:29:56.639Z,6.65
2023-04-15T10:32:25.178Z,7.32
2023-04-15T10:34:54.419Z,7.43
2023-04-15T10:37:22.855Z,7.32
2023-04-15T10:39:50.811Z,7.32
2023-04-15T10:42:19.376Z,7.22
2023-04-15T10:44:49.824Z,7.90
2023-04-15T10:47:19.517Z,7.63
2023-04-15T10:49:47.532Z,8.25
2023-04-15T10:52:15.617Z,7.60
2023-04-15T10:54:42.684Z,8.05
2023-04-15T10:57:17.591Z,7.78
2023-04-15T11:00:00.976Z,7.18
2023-04-15T11:02:49.262Z,7.15
2023-04-15T11:05:17.257Z,6.70
2023-04-15T11:07:50.945Z,6.68
2023-04-15T11:10:17.871Z,7.00
2023-04-15T11:12:45.572Z,7.60
2023-04-15T11:15:45.045Z,7.38
2023-04-15T11:18:22.457Z,7.65
2023-04-15T11:20:50.968Z,7.18
2023-04-15T11:23:19.198Z,6.93
2023-04-15T11:25:46.308Z,6.38
2023-04-15T11:28:13.614Z,6.10
2023-04-15T11:30:40.837Z,6.30
2023-04-15T11:33:09.365Z,5.68
2023-04-15T11:35:36.792Z,5.22
2023-04-15T11:38:06.237Z,6.10
2023-04-15T11:40:33.585Z,6.13
2023-04-15T11:43:13.615Z,6.20
2023-04-15T11:45:59.118Z,6.18
2023-04-15T11:48:30.834Z,6.00
2023-04-15T11:51:06.268Z,5.05
2023-04-15T11:53:46.799Z,5.45
2023-04-15T11:56:32.544Z,5.40
2023-04-15T11:59:00.010Z,6.03
2023-04-15T12:01:39.389Z,5.90
2023-04-15T12:04:18.008Z,5.60
2023-04-15T12:06:45.675Z,5.40
2023-04-15T12:09:13.167Z,5.53
2023-04-15T12:11:46.273Z,5.25
2023-04-15T12:14:13.258Z,5.57
2023-04-15T12:16:52.198Z,5.80
2023-04-15T12:19:42.007Z,6.28
2023-04-15T12:22:16.497Z,6.47
2023-04-15T12:24:44.384Z,5.68
2023-04-15T12:27:12.089Z,5.45
2023-04-15T12:29:40.085Z,5.93
2023-04-15T12:32:08.305Z,5.43
2023-04-15T12:34:36.856Z,5.80
2023-04-15T12:37:05.119Z,6.38
2023-04-15T12:39:34.777Z,6.30
2023-04-15T12:42:01.783Z,5.93
2023-04-15T12:44:28.769Z,5.95
2023-04-15T12:46:55.876Z,5.88
2023-04-15T12:49:23.181Z,5.60
2023-04-15T12:51:50.762Z,4.90
2023-04-15T12:54:18.098Z,4.70
2023-04-15T12:56:46.358Z,5.28
2023-04-15T12:59:13.950Z,5.10
2023-04-15T13:01:41.521Z,5.03
2023-04-15T13:04:09.244Z,5.03
2023-04-15T13:06:36.917Z,5.28
2023-04-15T13:09:05.296Z,5.68
2023-04-15T13:11:33.911Z,5.53
2023-04-15T13:14:01.929Z,5.63
2023-04-15T13:16:29.184Z,4.90
2023-04-15T13:18:56.404Z,4.90
2023-04-15T13:21:23.373Z,4.70
2023-04-15T13:23:53.215Z,4.93
2023-04-15T13:26:20.143Z,4.80
2023-04-15T13:28:47.209Z,4.97
2023-04-15T13:31:14.211Z,5.18
2023-04-15T13:33:41.355Z,5.57
2023-04-15T13:36:08.528Z,6.00
2023-04-15T13:38:35.478Z,6.15
2023-04-15T13:41:02.358Z,5.88
2023-04-15T13:43:29.284Z,5.55
2023-04-15T13:45:56.361Z,5.10
2023-04-15T13:48:23.331Z,5.00
2023-04-15T13:50:51.199Z,5.40
2023-04-15T13:53:18.148Z,4.82
2023-04-15T13:55:45.088Z,4.93
2023-04-15T13:58:12.043Z,4.75
2023-04-15T14:00:38.948Z,4.70
2023-04-15T14:03:06.162Z,4.55
2023-04-15T14:05:33.398Z,4.28
2023-04-15T14:08:00.888Z,4.60
2023-04-15T14:10:27.964Z,4.63
2023-04-15T14:12:54.916Z,4.90
2023-04-15T14:15:21.956Z,5.18
2023-04-15T14:17:49.002Z,4.88
2023-04-15T14:20:17.226Z,4.78
2023-04-15T14:22:44.449Z,4.75
2023-04-15T14:25:17.308Z,4.72
2023-04-15T14:27:50.825Z,4.55
2023-04-15T14:30:17.807Z,4.85
2023-04-15T14:32:44.823Z,4.50
2023-04-15T14:35:11.796Z,5.07
2023-04-15T14:37:38.895Z,5.03
2023-04-15T14:40:06.481Z,5.15
2023-04-15T14:42:34.184Z,4.65
2023-04-15T14:45:01.364Z,4.85
2023-04-15T14:47:28.530Z,4.80
2023-04-15T14:49:55.542Z,4.30
2023-04-15T14:52:22.561Z,5.18
2023-04-15T14:54:49.571Z,5.20
2023-04-15T14:57:16.519Z,4.85
2023-04-15T14:59:43.478Z,4.55
2023-04-15T15:02:11.514Z,5.15
2023-04-15T15:04:40.733Z,5.03
2023-04-15T15:07:07.819Z,5.25
2023-04-15T15:09:36.496Z,4.85
2023-04-15T15:12:04.248Z,5.22
2023-04-15T15:14:31.311Z,4.97
2023-04-15T15:16:58.255Z,5.10
2023-04-15T15:19:25.411Z,4.97
2023-04-15T15:21:52.332Z,4.50
2023-04-15T15:24:19.238Z,4.95
2023-04-15T15:26:46.309Z,4.90
2023-04-15T15:29:13.359Z,5.07
2023-04-15T15:31:40.528Z,4.93
2023-04-15T15:34:07.562Z,4.85
2023-04-15T15:36:37.424Z,4.70
2023-04-15T15:41:33.424Z,4.85
2023-04-15T15:44:00.988Z,4.90
2023-04-15T15:46:28.367Z,4.95
2023-04-15T15:48:55.542Z,4.85
2023-04-15T15:51:22.498Z,4.80
2023-04-15T15:53:49.531Z,4.38
2023-04-15T15:56:17.243Z,5.45
2023-04-15T15:58:45.081Z,5.05
2023-04-15T16:01:12.256Z,5.30
2023-04-15T16:03:39.519Z,5.82
2023-04-15T16:06:06.609Z,4.88
2023-04-15T16:08:33.559Z,4.97
2023-04-15T16:11:00.588Z,5.38
2023-04-15T16:13:27.891Z,4.82
2023-04-15T16:15:54.831Z,4.63
2023-04-15T16:18:21.765Z,5.30
2023-04-15T16:20:48.729Z,4.95
2023-04-15T16:23:16.416Z,4.57
2023-04-15T16:25:44.287Z,4.82
2023-04-15T16:28:23.131Z,5.53
2023-04-15T16:30:53.216Z,5.60
2023-04-15T16:33:20.183Z,6.25
2023-04-15T16:35:47.183Z,5.85
2023-04-15T16:38:14.098Z,6.28
2023-04-15T16:40:41.360Z,6.68
2023-04-15T16:43:11.171Z,6.43
2023-04-15T16:45:38.367Z,6.50
2023-04-15T16:48:05.912Z,6.40
2023-04-15T16:50:32.910Z,6.70
2023-04-15T16:52:59.878Z,6.32
2023-04-15T16:55:27.139Z,6.45
2023-04-15T16:58:02.440Z,5.93
2023-04-15T17:00:31.565Z,5.88
2023-04-15T17:02:59.530Z,6.80
2023-04-15T17:05:29.411Z,6.38
2023-04-15T17:07:56.403Z,6.85
2023-04-15T17:10:23.443Z,7.70
2023-04-15T17:12:52.201Z,6.68
2023-04-15T17:15:19.824Z,6.50
2023-04-15T17:17:46.987Z,7.00
2023-04-15T17:20:16.850Z,6.78
2023-04-15T17:22:45.586Z,6.55
2023-04-15T17:25:13.925Z,6.45
2023-04-15T17:27:41.104Z,6.90
2023-04-15T17:30:08.731Z,7.20
2023-04-15T17:32:35.809Z,6.15
2023-04-15T17:35:06.015Z,6.53
2023-04-15T17:37:33.859Z,8.57
2023-04-15T17:40:01.062Z,7.85
2023-04-15T17:42:28.068Z,7.38
2023-04-15T17:44:55.149Z,8.48
2023-04-15T17:47:22.128Z,7.68
2023-04-15T17:49:49.075Z,7.32
2023-04-15T17:52:16.015Z,7.00
2023-04-15T17:54:43.010Z,6.78
2023-04-15T17:57:09.931Z,7.28
2023-04-15T17:59:37.143Z,6.95
2023-04-15T18:02:04.232Z,6.63
2023-04-15T18:04:31.991Z,7.05
2023-04-15T18:06:59.097Z,6.63
2023-04-15T18:09:27.094Z,7.22
2023-04-15T18:11:54.079Z,7.95
2023-04-15T18:14:33.662Z,7.78
2023-04-15T18:17:02.363Z,7.28
2023-04-15T18:19:30.322Z,7.53
2023-04-15T18:21:58.012Z,7.50
2023-04-15T18:24:24.924Z,7.25
2023-04-15T18:26:52.707Z,6.82
2023-04-15T18:29:19.761Z,7.35
2023-04-15T18:31:46.798Z,8.15
2023-04-15T18:34:13.785Z,7.70
2023-04-15T18:36:40.803Z,7.60
2023-04-15T18:39:08.125Z,8.07
2023-04-15T18:41:35.363Z,8.45
2023-04-15T18:44:02.485Z,7.60
2023-04-15T18:46:29.496Z,7.50
2023-04-15T18:48:56.529Z,7.38
2023-04-15T18:51:23.706Z,7.25
2023-04-15T18:53:50.749Z,7.50
2023-04-15T18:56:17.994Z,6.88
2023-04-15T18:59:25.766Z,7.38
2023-04-15T19:01:32.512Z,7.32
2023-04-15T19:03:59.666Z,7.00
2023-04-15T19:06:27.316Z,6.85
2023-04-15T19:08:54.680Z,7.07
2023-04-15T19:11:21.920Z,7.07
2023-04-15T19:13:49.362Z,7.28
2023-04-15T19:16:16.526Z,6.95
2023-04-15T19:18:44.016Z,7.72
2023-04-15T19:21:12.206Z,8.30
2023-04-15T19:23:39.689Z,7.80
2023-04-15T19:26:08.596Z,7.82
2023-04-15T19:28:35.864Z,7.65
2023-04-15T19:31:02.849Z,8.57
2023-04-15T19:33:31.612Z,7.32
2023-04-15T19:36:01.366Z,7.60
2023-04-15T19:38:28.276Z,7.80
2023-04-15T19:40:55.409Z,8.02
2023-04-15T19:43:22.874Z,8.10
2023-04-15T19:45:52.576Z,7.75
2023-04-15T19:48:19.882Z,8.43
2023-04-15T19:50:47.434Z,8.93
2023-04-15T19:53:14.655Z,8.90
2023-04-15T19:55:41.791Z,8.85
2023-04-15T19:58:08.730Z,8.40
2023-04-15T20:00:36.279Z,9.20
2023-04-15T20:03:03.500Z,9.27
2023-04-15T20:05:30.901Z,9.23
2023-04-15T20:07:59.821Z,8.93
2023-04-15T20:10:27.321Z,9.77
2023-04-15T20:12:54.351Z,9.18
2023-04-15T20:15:23.718Z,9.32
2023-04-15T20:17:51.248Z,9.80
2023-04-15T20:20:18.713Z,10.10
2023-04-15T20:22:45.960Z,10.52
2023-04-15T20:25:13.080Z,9.65
2023-04-15T20:27:40.812Z,9.95
2023-04-15T20:30:08.339Z,9.57
2023-04-15T20:32:36.132Z,10.68
2023-04-15T20:35:04.519Z,11.00
2023-04-15T20:37:33.455Z,8.88
2023-04-15T20:40:01.542Z,10.65
2023-04-15T20:42:31.972Z,9.82
2023-04-15T20:44:59.065Z,10.30
2023-04-15T20:47:26.394Z,9.63
2023-04-15T20:49:54.200Z,10.07
2023-04-15T20:52:21.207Z,10.52
2023-04-15T20:54:48.269Z,11.43
2023-04-15T20:57:15.494Z,10.30
2023-04-15T20:59:42.668Z,10.68
2023-04-15T21:02:09.918Z,11.10
2023-04-15T21:04:38.428Z,12.93
2023-04-15T21:07:05.690Z,10.93
2023-04-15T21:09:32.792Z,11.38
2023-04-15T21:12:01.729Z,12.02
2023-04-15T21:14:29.216Z,12.85
2023-04-15T21:16:57.733Z,12.82
2023-04-15T21:19:24.732Z,11.73
2023-04-15T21:21:52.068Z,12.40
2023-04-15T21:24:18.987Z,12.98
2023-04-15T21:26:45.977Z,12.90
2023-04-15T21:29:13.195Z,12.15
2023-04-15T21:31:40.836Z,12.40
2023-04-15T21:34:07.862Z,12.98
2023-04-15T21:36:35.174Z,12.35
2023-04-15T21:39:02.433Z,12.48
2023-04-15T21:41:29.640Z,12.25
2023-04-15T21:43:56.642Z,13.48
2023-04-15T21:46:25.740Z,13.52
2023-04-15T21:49:00.387Z,12.20
2023-04-15T21:51:27.714Z,13.90
2023-04-15T21:53:54.692Z,14.20
2023-04-15T21:56:24.226Z,14.30
2023-04-15T21:58:54.199Z,14.77
2023-04-15T22:01:21.442Z,13.95
2023-04-15T22:03:48.889Z,13.60
2023-04-15T22:06:16.404Z,13.85
2023-04-15T22:08:54.913Z,13.93
2023-04-15T22:11:27.124Z,14.15
2023-04-15T22:13:54.834Z,14.45
2023-04-15T22:16:21.883Z,15.50
2023-04-15T22:18:49.050Z,15.93
2023-04-15T22:21:16.492Z,14.77
2023-04-15T22:23:47.425Z,14.88
2023-04-15T22:26:14.624Z,15.25
2023-04-15T22:28:41.902Z,15.10
2023-04-15T22:31:08.969Z,16.33
2023-04-15T22:33:36.065Z,16.23
2023-04-15T22:36:03.053Z,15.38
2023-04-15T22:38:30.068Z,16.02
2023-04-15T22:40:57.061Z,16.75
2023-04-15T22:43:23.986Z,15.82
2023-04-15T22:45:51.165Z,15.90
2023-04-15T22:48:18.747Z,16.45
2023-04-15T22:50:45.938Z,16.58
2023-04-15T22:53:12.928Z,16.15
2023-04-15T22:55:39.802Z,16.13
2023-04-15T22:58:06.774Z,15.55
2023-04-15T23:00:33.705Z,15.75
2023-04-15T23:03:00.904Z,15.25
2023-04-15T23:05:28.020Z,15.00
2023-04-15T23:07:55.032Z,15.75
2023-04-15T23:10:22.096Z,15.02
2023-04-15T23:12:49.049Z,14.15
2023-04-15T23:15:16.309Z,14.82
2023-04-15T23:17:43.587Z,14.73
2023-04-15T23:20:11.541Z,13.95
2023-04-15T23:22:38.918Z,14.15
2023-04-15T23:25:06.361Z,14.52
2023-04-15T23:27:33.280Z,14.18
2023-04-15T23:30:00.185Z,15.38
2023-04-15T23:32:27.472Z,14.27
2023-04-15T23:34:54.522Z,14.75
2023-04-15T23:37:21.627Z,14.93
2023-04-15T23:39:48.531Z,15.57
2023-04-15T23:42:15.878Z,14.35
2023-04-15T23:44:42.895Z,14.13
2023-04-15T23:47:10.369Z,15.38
2023-04-15T23:49:37.315Z,15.68
2023-04-15T23:52:04.346Z,14.43
2023-04-15T23:54:31.254Z,14.75
2023-04-15T23:56:58.188Z,15.02
2023-04-15T23:59:25.349Z,14.90
